Time;durP1;ratioP1;P1;durP2;ratioP2;P2;SDS_P1;SDS_P2;PMS_P1;PMS_P2;Temp;Humidity;BMP_temperature;BMP_pressure;BME280_temperature;BME280_humidity;BME280_pressure;Samples;Min_cycle;Max_cycle;Signal;HPM_P1;HPM_P2
2023/07/25 00:06:39;;;;;;;3.58;1.77;;;;;;;;;;4910434;29;20168;-81
2023/07/25 00:12:52;;;;;;;;;;;;;;;;;;;;;
2023/07/25 00:15:30;;;;;;;3.90;2.17;;;;;;;;;;4888306;29;20051;-81
2023/07/25 00:27:37;;;;;;;5.28;2.10;;;;;;;;;;4958091;28;20134;-82
2023/07/25 00:36:42;;;;;;;6.28;2.40;;;;;;;;;;4964949;28;20421;-81
2023/07/25 00:56:56;;;;;;;6.10;3.30;;;;;;;;;;4906328;29;20064;-81
2023/07/25 00:59:52;;;;;;;6.43;2.70;;;;;;;;;;4933498;29;20035;-81
2023/07/25 01:02:18;;;;;;;4.75;2.40;;;;;;;;;;4947397;28;20126;-81
2023/07/25 01:05:19;;;;;;;4.25;2.65;;;;;;;;;;5026302;28;20132;-81
2023/07/25 01:08:37;;;;;;;;;;;;;;;;;;;;;
2023/07/25 01:14:34;;;;;;;6.65;2.67;;;;;;;;;;4990110;28;20084;-81
2023/07/25 01:59:44;;;;;;;7.15;2.80;;;;;;;;;;4754338;30;20079;-81
2023/07/25 02:02:48;;;;;;;7.75;3.00;;;;;;;;;;4768200;29;20130;-81
2023/07/25 02:09:37;;;;;;;8.23;3.15;;;;;;;;;;4781596;29;20154;-81
2023/07/25 02:20:13;;;;;;;6.43;3.15;;;;;;;;;;4710173;30;20037;-81
2023/07/25 02:35:55;;;;;;;10.43;3.50;;;;;;;;;;5078009;27;20431;-80
2023/07/25 02:59:57;;;;;;;6.00;3.45;;;;;;;;;;4780384;29;20087;-80
2023/07/25 03:02:24;;;;;;;12.00;4.88;;;;;;;;;;4784530;29;20054;-80
2023/07/25 03:04:50;;;;;;;6.07;3.17;;;;;;;;;;4791518;29;20055;-80
2023/07/25 03:07:34;;;;;;;6.50;3.17;;;;;;;;;;4789178;29;20121;-80
2023/07/25 03:14:35;;;;;;;5.18;2.38;;;;;;;;;;4901212;29;20922;-80
2023/07/25 03:45:09;;;;;;;9.38;2.63;;;;;;;;;;4744314;30;20629;-80
2023/07/25 03:47:42;;;;;;;7.05;3.10;;;;;;;;;;4854575;28;20058;-80
2023/07/25 03:50:08;;;;;;;6.93;3.45;;;;;;;;;;4948977;28;20098;-80
2023/07/25 03:58:25;;;;;;;6.75;3.75;;;;;;;;;;4990173;28;20045;-80
2023/07/25 04:05:10;;;;;;;9.43;4.15;;;;;;;;;;5002129;28;21040;-80
2023/07/25 04:45:42;;;;;;;11.10;4.45;;;;;;;;;;4731396;30;20163;-80
2023/07/25 04:48:13;;;;;;;12.98;4.40;;;;;;;;;;4725247;30;20049;-80
2023/07/25 05:00:13;;;;;;;10.55;4.60;;;;;;;;;;4959138;28;20029;-80
2023/07/25 05:02:42;;;;;;;10.63;4.60;;;;;;;;;;4993934;28;20045;-80
2023/07/25 05:05:48;;;;;;;11.55;4.70;;;;;;;;;;5017395;28;20041;-80
2023/07/25 05:08:17;;;;;;;8.60;4.53;;;;;;;;;;5042337;28;20032;-80
2023/07/25 05:10:52;;;;;;;10.20;4.25;;;;;;;;;;5045056;28;20119;-80
2023/07/25 05:13:23;;;;;;;7.68;4.18;;;;;;;;;;5043898;28;20123;-80
2023/07/25 05:15:52;;;;;;;10.25;4.60;;;;;;;;;;5044512;28;20060;-80
2023/07/25 05:21:26;;;;;;;12.55;4.28;;;;;;;;;;5042799;28;20039;-80
2023/07/25 05:24:26;;;;;;;7.90;4.35;;;;;;;;;;5033912;28;20041;-80
2023/07/25 05:26:52;;;;;;;11.25;4.05;;;;;;;;;;5038276;28;20029;-80
2023/07/25 05:29:18;;;;;;;8.25;4.15;;;;;;;;;;5035827;28;20061;-80
2023/07/25 05:32:05;;;;;;;8.38;4.30;;;;;;;;;;5043193;28;20032;-80
2023/07/25 05:38:08;;;;;;;10.15;4.07;;;;;;;;;;5031882;28;20052;-80
2023/07/25 05:40:35;;;;;;;8.82;4.03;;;;;;;;;;5037737;28;20037;-80
2023/07/25 05:43:06;;;;;;;9.18;4.10;;;;;;;;;;5037361;28;20187;-80
2023/07/25 05:46:07;;;;;;;7.15;3.63;;;;;;;;;;5031646;28;20083;-80
2023/07/25 05:58:47;;;;;;;8.95;3.70;;;;;;;;;;4938077;28;20047;-80
2023/07/25 06:01:16;;;;;;;9.60;3.92;;;;;;;;;;4926585;29;20039;-80
2023/07/25 06:08:22;;;;;;;6.57;3.95;;;;;;;;;;5003694;28;20118;-80
2023/07/25 06:10:50;;;;;;;7.97;4.35;;;;;;;;;;4986037;28;20041;-80
2023/07/25 06:13:54;;;;;;;6.93;3.97;;;;;;;;;;5019810;28;20037;-80
2023/07/25 06:16:25;;;;;;;8.23;4.00;;;;;;;;;;4997328;28;20065;-80
2023/07/25 06:33:20;;;;;;;6.18;3.33;;;;;;;;;;5011082;28;20749;-80
2023/07/25 06:36:47;;;;;;;6.30;3.90;;;;;;;;;;5039086;28;20485;-80
2023/07/25 06:39:30;;;;;;;9.45;3.55;;;;;;;;;;5005835;28;20130;-80
2023/07/25 06:42:31;;;;;;;6.45;3.40;;;;;;;;;;4996056;28;20130;-80
2023/07/25 06:45:09;;;;;;;7.75;3.45;;;;;;;;;;4982182;28;20100;-80
2023/07/25 06:48:45;;;;;;;10.35;3.67;;;;;;;;;;4985106;28;20030;-80
2023/07/25 06:51:42;;;;;;;8.00;3.42;;;;;;;;;;4949214;28;20058;-80
2023/07/25 07:00:49;;;;;;;7.60;3.40;;;;;;;;;;4904632;29;20673;-80
2023/07/25 07:09:57;;;;;;;6.50;2.53;;;;;;;;;;4949003;28;20046;-80
2023/07/25 07:12:42;;;;;;;3.85;2.00;;;;;;;;;;5025451;28;20037;-80
2023/07/25 07:15:08;;;;;;;5.55;2.33;;;;;;;;;;5027083;28;20084;-79
2023/07/25 07:21:42;;;;;;;6.32;2.50;;;;;;;;;;4904382;29;20035;-80
2023/07/25 07:24:40;;;;;;;8.55;2.70;;;;;;;;;;4871630;29;20029;-80
2023/07/25 07:27:30;;;;;;;6.35;2.40;;;;;;;;;;4939727;28;20050;-81
2023/07/25 07:29:56;;;;;;;7.22;2.47;;;;;;;;;;4961187;28;20232;-80
2023/07/25 07:35:25;;;;;;;6.23;1.80;;;;;;;;;;4934819;28;20123;-79
2023/07/25 07:41:34;;;;;;;6.95;2.00;;;;;;;;;;4945060;28;20121;-81
2023/07/25 07:51:07;;;;;;;8.75;2.45;;;;;;;;;;4887800;28;20047;-80
2023/07/25 07:53:38;;;;;;;3.88;2.03;;;;;;;;;;5007837;28;20537;-80
2023/07/25 07:56:27;;;;;;;5.75;1.90;;;;;;;;;;5026482;28;20035;-80
2023/07/25 07:58:56;;;;;;;5.03;1.67;;;;;;;;;;5035401;28;20426;-80
2023/07/25 08:01:27;;;;;;;5.35;1.90;;;;;;;;;;5035471;28;20060;-80
2023/07/25 08:03:53;;;;;;;3.97;1.60;;;;;;;;;;5040318;28;20105;-80
2023/07/25 08:06:19;;;;;;;3.33;1.67;;;;;;;;;;5024750;28;20040;-80
2023/07/25 08:08:48;;;;;;;5.72;2.55;;;;;;;;;;5043159;28;20123;-79
2023/07/25 08:11:23;;;;;;;8.50;2.42;;;;;;;;;;5035358;28;20041;-79
2023/07/25 08:14:13;;;;;;;6.60;2.20;;;;;;;;;;5021526;28;20064;-80
2023/07/25 08:20:56;;;;;;;7.30;1.90;;;;;;;;;;5034803;28;20041;-79
2023/07/25 08:23:22;;;;;;;6.40;1.90;;;;;;;;;;4987849;28;20045;-79
2023/07/25 08:30:21;;;;;;;4.60;1.95;;;;;;;;;;5006257;28;20095;-79
2023/07/25 08:36:28;;;;;;;5.53;1.88;;;;;;;;;;4895499;29;20056;-83
2023/07/25 08:39:48;;;;;;;4.28;1.88;;;;;;;;;;4951027;28;20054;-81
2023/07/25 08:42:42;;;;;;;;;;;;;;;;;;;;;
2023/07/25 08:45:20;;;;;;;6.97;1.90;;;;;;;;;;4950547;28;20054;-81
2023/07/25 08:48:40;;;;;;;7.57;2.25;;;;;;;;;;4963156;28;20093;-82
2023/07/25 08:50:46;;;;;;;1.85;1.50;;;;;;;;;;4954560;28;20172;-81
2023/07/25 09:01:14;;;;;;;4.07;1.90;;;;;;;;;;4997479;28;20073;-81
2023/07/25 09:07:20;;;;;;;2.45;1.70;;;;;;;;;;4932458;28;20050;-81
2023/07/25 09:11:01;;;;;;;8.02;1.70;;;;;;;;;;4938976;28;20035;-81
2023/07/25 09:13:30;;;;;;;2.72;1.73;;;;;;;;;;4869679;29;20152;-80
2023/07/25 09:19:59;;;;;;;6.75;1.80;;;;;;;;;;4852617;29;20022;-80
2023/07/25 09:22:41;;;;;;;;;;;;;;;;;;;;;
2023/07/25 09:29:24;;;;;;;;;;;;;;;;;;;;;
2023/07/25 09:31:53;;;;;;;10.68;2.25;;;;;;;;;;4888475;29;20044;-80
2023/07/25 09:41:17;;;;;;;;;;;;;;;;;;;;;
2023/07/25 09:44:32;;;;;;;6.82;1.60;;;;;;;;;;4987699;28;20566;-80
2023/07/25 09:50:38;;;;;;;5.00;1.75;;;;;;;;;;4990122;28;20049;-79
2023/07/25 09:53:58;;;;;;;4.78;1.52;;;;;;;;;;5005083;28;20034;-80
2023/07/25 09:56:35;;;;;;;;;;;;;;;;;;;;;
2023/07/25 09:59:48;;;;;;;2.55;1.60;;;;;;;;;;5002115;28;20056;-79
2023/07/25 10:05:11;;;;;;;;;;;;;;;;;;;;;
2023/07/25 10:08:02;;;;;;;3.65;1.67;;;;;;;;;;4951819;28;20046;-80
2023/07/25 10:11:11;;;;;;;;;;;;;;;;;;;;;
2023/07/25 10:14:04;;;;;;;6.00;1.60;;;;;;;;;;4943723;28;20039;-80
2023/07/25 10:30:52;;;;;;;;;;;;;;;;;;;;;
2023/07/25 10:33:31;;;;;;;8.95;2.88;;;;;;;;;;5023749;28;20033;-81
2023/07/25 10:36:00;;;;;;;8.07;2.92;;;;;;;;;;5025101;28;20032;-80
2023/07/25 10:39:09;;;;;;;6.80;3.00;;;;;;;;;;5040561;28;20089;-81
2023/07/25 10:42:01;;;;;;;12.52;3.70;;;;;;;;;;5037287;28;20029;-81
2023/07/25 10:51:28;;;;;;;5.63;3.28;;;;;;;;;;5002366;28;20037;-81
2023/07/25 10:54:18;;;;;;;9.23;4.13;;;;;;;;;;5023923;28;20033;-81
2023/07/25 10:57:36;;;;;;;5.05;3.42;;;;;;;;;;5048321;28;20045;-81
2023/07/25 11:07:45;;;;;;;6.63;3.28;;;;;;;;;;4885054;29;20094;-81
2023/07/25 11:14:23;;;;;;;;;;;;;;;;;;;;;
2023/07/25 11:23:52;;;;;;;5.28;3.10;;;;;;;;;;4906473;29;20135;-80
2023/07/25 11:27:04;;;;;;;7.10;3.28;;;;;;;;;;4930327;29;20179;-81
2023/07/25 11:33:41;;;;;;;8.35;2.60;;;;;;;;;;4902406;29;20124;-82
2023/07/25 12:20:22;;;;;;;4.60;2.30;;;;;;;;;;4909892;28;20170;-80
2023/07/25 12:23:26;;;;;;;;;;;;;;;;;;;;;
2023/07/25 12:26:14;;;;;;;4.25;2.25;;;;;;;;;;5006465;28;20121;-80
2023/07/25 12:35:31;;;;;;;4.97;1.80;;;;;;;;;;4918882;29;20052;-80
2023/07/25 12:38:21;;;;;;;3.05;2.05;;;;;;;;;;5011517;28;20034;-80
2023/07/25 12:51:09;;;;;;;4.70;1.40;;;;;;;;;;5019088;28;20163;-79
2023/07/25 13:10:10;;;;;;;2.20;1.25;;;;;;;;;;4920823;29;20095;-80
2023/07/25 13:12:42;;;;;;;1.75;1.20;;;;;;;;;;4918944;29;20027;-81
2023/07/25 13:28:54;;;;;;;;;;;;;;;;;;;;;
2023/07/25 13:31:30;;;;;;;3.00;1.10;;;;;;;;;;4855519;29;20115;-80
2023/07/25 13:33:56;;;;;;;1.65;1.08;;;;;;;;;;4892353;29;20438;-81
2023/07/25 13:40:52;;;;;;;;;;;;;;;;;;;;;
2023/07/25 13:43:41;;;;;;;1.50;1.10;;;;;;;;;;4831828;29;20055;-81
2023/07/25 13:55:55;;;;;;;8.55;1.55;;;;;;;;;;4837025;29;20144;-79
2023/07/25 14:01:46;;;;;;;2.33;1.10;;;;;;;;;;5003718;28;20750;-80
2023/07/25 14:15:03;;;;;;;2.40;1.10;;;;;;;;;;4927192;28;20568;-80
2023/07/25 14:21:31;;;;;;;1.33;1.00;;;;;;;;;;4881343;29;20075;-80
2023/07/25 14:27:53;;;;;;;1.20;0.95;;;;;;;;;;4960994;28;20070;-80
2023/07/25 14:59:45;;;;;;;1.17;1.05;;;;;;;;;;4942327;28;20114;-81
2023/07/25 15:05:56;;;;;;;2.20;1.15;;;;;;;;;;4951961;28;20129;-81
2023/07/25 15:12:07;;;;;;;;;;;;;;;;;;;;;
2023/07/25 15:15:10;;;;;;;2.42;1.15;;;;;;;;;;4903264;28;20614;-81
2023/07/25 15:18:23;;;;;;;1.23;1.00;;;;;;;;;;4950695;28;20039;-80
2023/07/25 15:20:50;;;;;;;3.00;1.10;;;;;;;;;;4948655;28;20042;-80
2023/07/25 15:24:15;;;;;;;1.10;1.00;;;;;;;;;;5021951;28;20041;-80
2023/07/25 15:26:46;;;;;;;1.30;1.10;;;;;;;;;;5025592;28;20041;-81
2023/07/25 15:29:31;;;;;;;1.98;1.13;;;;;;;;;;5024710;28;20076;-80
2023/07/25 15:39:13;;;;;;;1.20;1.00;;;;;;;;;;4953454;28;20068;-80
2023/07/25 15:41:47;;;;;;;1.60;1.33;;;;;;;;;;4993912;28;20054;-80
2023/07/25 15:44:13;;;;;;;3.70;1.35;;;;;;;;;;5008698;28;20042;-80
2023/07/25 15:46:47;;;;;;;2.15;0.90;;;;;;;;;;5024918;28;20045;-81
2023/07/25 15:49:23;;;;;;;;;;;;;;;;;;;;;
2023/07/25 15:55:40;;;;;;;1.27;0.90;;;;;;;;;;5010097;28;20064;-81
2023/07/25 16:01:41;;;;;;;1.30;1.10;;;;;;;;;;5032339;28;20125;-81
2023/07/25 16:04:34;;;;;;;0.82;0.82;;;;;;;;;;5026958;28;20153;-81
2023/07/25 16:10:01;;;;;;;3.17;1.10;;;;;;;;;;5012943;28;20114;-81
2023/07/25 16:15:49;;;;;;;0.80;0.80;;;;;;;;;;4987196;28;20038;-80
2023/07/25 16:18:52;;;;;;;1.13;0.98;;;;;;;;;;4986960;28;20069;-81
2023/07/25 16:21:27;;;;;;;1.40;1.10;;;;;;;;;;5039562;28;20037;-81
2023/07/25 16:24:30;;;;;;;2.50;1.00;;;;;;;;;;5054134;28;20100;-83
2023/07/25 16:27:55;;;;;;;;;;;;;;;;;;;;;
2023/07/25 16:34:38;;;;;;;0.70;0.70;;;;;;;;;;5002535;28;20091;-83
2023/07/25 16:37:09;;;;;;;1.88;1.05;;;;;;;;;;5030507;28;20045;-83
2023/07/25 16:43:03;;;;;;;2.67;1.15;;;;;;;;;;5003082;28;20104;-81
2023/07/25 16:45:30;;;;;;;1.13;1.00;;;;;;;;;;5009222;28;20037;-80
2023/07/25 16:48:03;;;;;;;1.67;1.02;;;;;;;;;;5041155;28;20119;-81
2023/07/25 16:50:32;;;;;;;1.52;1.10;;;;;;;;;;5043759;28;20031;-81
2023/07/25 16:53:02;;;;;;;1.55;0.98;;;;;;;;;;5043655;28;20128;-81
2023/07/25 17:03:02;;;;;;;1.65;0.95;;;;;;;;;;4971381;28;20009;-80
2023/07/25 18:12:02;;;;;;;2.47;1.40;;;;;;;;;;4830731;29;20037;-83
2023/07/25 18:15:23;;;;;;;1.50;1.27;;;;;;;;;;4878027;29;20073;-83
2023/07/25 18:34:54;;;;;;;;;;;;;;;;;;;;;
2023/07/25 18:44:25;;;;;;;;;;;;;;;;;;;;;
2023/07/25 18:50:03;;;;;;;2.03;1.40;;;;;;;;;;4971801;28;20041;-82
2023/07/25 18:53:00;;;;;;;1.27;0.98;;;;;;;;;;4965229;28;20038;-81
2023/07/25 18:55:51;;;;;;;2.38;1.25;;;;;;;;;;5009903;28;20092;-81
2023/07/25 19:05:32;;;;;;;1.77;1.38;;;;;;;;;;5020448;28;20048;-83
2023/07/25 19:08:35;;;;;;;4.93;1.35;;;;;;;;;;5049295;28;20036;-80
2023/07/25 19:11:36;;;;;;;1.73;1.50;;;;;;;;;;5005332;28;20045;-82
2023/07/25 19:18:03;;;;;;;3.13;1.40;;;;;;;;;;5038988;28;20044;-80
2023/07/25 19:20:48;;;;;;;2.00;1.40;;;;;;;;;;5034656;28;20056;-81
2023/07/25 19:24:26;;;;;;;2.25;1.50;;;;;;;;;;5053463;28;20045;-80
2023/07/25 19:27:02;;;;;;;2.42;1.40;;;;;;;;;;5006301;28;20041;-80
2023/07/25 19:29:28;;;;;;;2.83;1.15;;;;;;;;;;4989275;28;20022;-81
2023/07/25 19:32:20;;;;;;;1.65;1.15;;;;;;;;;;5051937;28;20111;-81
2023/07/25 19:34:50;;;;;;;4.25;1.48;;;;;;;;;;5057185;28;20040;-81
2023/07/25 19:37:19;;;;;;;2.88;1.40;;;;;;;;;;5056809;28;20060;-81
2023/07/25 19:39:45;;;;;;;1.85;1.33;;;;;;;;;;5065695;28;20466;-82
2023/07/25 19:46:06;;;;;;;1.48;1.20;;;;;;;;;;4977767;28;20177;-81
2023/07/25 19:48:34;;;;;;;1.48;1.23;;;;;;;;;;4951126;28;20042;-81
2023/07/25 19:51:14;;;;;;;2.25;1.35;;;;;;;;;;5026573;28;20037;-81
2023/07/25 19:53:40;;;;;;;2.97;1.40;;;;;;;;;;5060507;28;20056;-81
2023/07/25 19:56:15;;;;;;;3.47;1.40;;;;;;;;;;5075206;28;20074;-81
2023/07/25 19:58:40;;;;;;;2.13;1.20;;;;;;;;;;5058121;28;20048;-81
2023/07/25 20:01:10;;;;;;;2.47;1.60;;;;;;;;;;5063747;28;20036;-82
2023/07/25 20:03:36;;;;;;;2.03;1.40;;;;;;;;;;5070441;28;20040;-82
2023/07/25 20:06:09;;;;;;;2.55;1.25;;;;;;;;;;5054654;28;20017;-81
2023/07/25 20:08:35;;;;;;;1.65;1.40;;;;;;;;;;5072787;28;20028;-81
2023/07/25 20:11:11;;;;;;;2.40;1.50;;;;;;;;;;5043820;28;20043;-81
2023/07/25 20:13:40;;;;;;;1.30;1.20;;;;;;;;;;5042424;28;20415;-81
2023/07/25 20:16:06;;;;;;;3.95;1.48;;;;;;;;;;5035550;28;20049;-81
2023/07/25 20:18:54;;;;;;;3.17;1.58;;;;;;;;;;5035278;28;20060;-81
2023/07/25 20:21:21;;;;;;;4.03;1.50;;;;;;;;;;5041305;28;20290;-81
2023/07/25 20:23:50;;;;;;;2.67;1.42;;;;;;;;;;5043527;28;20021;-81
2023/07/25 20:29:38;;;;;;;2.20;1.30;;;;;;;;;;4993514;28;20419;-81
2023/07/25 20:32:04;;;;;;;2.75;1.48;;;;;;;;;;4994457;28;20573;-82
2023/07/25 20:34:33;;;;;;;1.67;1.40;;;;;;;;;;5012236;28;20694;-81
2023/07/25 20:36:58;;;;;;;1.63;1.30;;;;;;;;;;5033975;28;20049;-81
2023/07/25 20:39:28;;;;;;;1.65;1.55;;;;;;;;;;5031617;28;20116;-81
2023/07/25 20:41:59;;;;;;;1.60;1.33;;;;;;;;;;5029839;28;20116;-81
2023/07/25 20:44:25;;;;;;;2.00;1.70;;;;;;;;;;5031372;28;20548;-81
2023/07/25 20:46:54;;;;;;;2.25;1.38;;;;;;;;;;5031599;28;20041;-81
2023/07/25 20:49:38;;;;;;;1.50;1.38;;;;;;;;;;5034645;28;20040;-81
2023/07/25 20:52:13;;;;;;;2.15;1.30;;;;;;;;;;5034830;28;20127;-81
2023/07/25 20:54:39;;;;;;;2.83;1.40;;;;;;;;;;5051593;28;20037;-81
2023/07/25 20:57:07;;;;;;;1.75;1.30;;;;;;;;;;5054433;28;20403;-81
2023/07/25 20:59:56;;;;;;;3.50;1.55;;;;;;;;;;5031659;28;20033;-81
2023/07/25 21:02:22;;;;;;;1.48;1.30;;;;;;;;;;5057617;28;20044;-81
2023/07/25 21:04:54;;;;;;;2.50;1.75;;;;;;;;;;5040640;28;20024;-81
2023/07/25 21:10:19;;;;;;;3.05;1.70;;;;;;;;;;5058129;28;20556;-81
2023/07/25 21:12:45;;;;;;;4.50;1.80;;;;;;;;;;5060146;28;20119;-81
2023/07/25 21:15:11;;;;;;;4.10;1.60;;;;;;;;;;5034058;28;20872;-80
2023/07/25 21:17:38;;;;;;;2.10;1.60;;;;;;;;;;5051326;28;20955;-80
2023/07/25 21:20:08;;;;;;;1.77;1.48;;;;;;;;;;5048993;28;20066;-81
2023/07/25 21:22:33;;;;;;;2.25;1.38;;;;;;;;;;5054010;28;20039;-81
2023/07/25 21:25:07;;;;;;;2.10;1.55;;;;;;;;;;5056470;28;20033;-81
2023/07/25 21:27:33;;;;;;;2.45;1.58;;;;;;;;;;5057578;28;20275;-81
2023/07/25 21:29:59;;;;;;;3.75;1.75;;;;;;;;;;5060379;28;20028;-81
2023/07/25 21:32:36;;;;;;;2.92;1.70;;;;;;;;;;5056464;28;20031;-81
2023/07/25 21:35:02;;;;;;;2.85;1.60;;;;;;;;;;5059379;28;20089;-81
2023/07/25 21:37:42;;;;;;;3.75;1.70;;;;;;;;;;5056178;28;20037;-81
2023/07/25 21:40:09;;;;;;;3.40;1.80;;;;;;;;;;5049870;28;20634;-81
2023/07/25 21:42:38;;;;;;;2.70;1.80;;;;;;;;;;5052061;28;20051;-83
2023/07/25 21:45:10;;;;;;;4.70;1.75;;;;;;;;;;5057452;28;20767;-80
2023/07/25 21:47:45;;;;;;;2.45;1.80;;;;;;;;;;5054146;28;20025;-80
2023/07/25 21:50:14;;;;;;;2.53;1.50;;;;;;;;;;5037665;28;20081;-80
2023/07/25 21:52:52;;;;;;;3.22;1.73;;;;;;;;;;5055767;28;20197;-80
2023/07/25 21:55:21;;;;;;;2.75;2.20;;;;;;;;;;5053984;28;20165;-80
2023/07/25 21:57:59;;;;;;;2.45;1.80;;;;;;;;;;5056445;28;20513;-80
2023/07/25 22:00:33;;;;;;;2.00;1.65;;;;;;;;;;5063061;28;20444;-80
2023/07/25 22:03:16;;;;;;;3.47;1.95;;;;;;;;;;5062561;28;20020;-80
2023/07/25 22:05:43;;;;;;;4.50;2.10;;;;;;;;;;5046485;28;20020;-81
2023/07/25 22:08:09;;;;;;;3.97;1.88;;;;;;;;;;5058750;28;20323;-81
2023/07/25 22:11:31;;;;;;;3.53;1.95;;;;;;;;;;5061535;28;20434;-80
2023/07/25 22:13:57;;;;;;;3.80;2.08;;;;;;;;;;4995990;28;20042;-80
2023/07/25 22:16:47;;;;;;;3.47;2.10;;;;;;;;;;5026883;28;20454;-81
2023/07/25 22:19:18;;;;;;;3.75;2.00;;;;;;;;;;5054548;28;20039;-81
2023/07/25 22:21:52;;;;;;;2.95;2.20;;;;;;;;;;5060172;28;20029;-80
2023/07/25 22:24:20;;;;;;;;;;;;;;;;;;5042946;28;20127;-80
2023/07/25 22:26:49;;;;;;;4.68;2.00;;;;;;;;;;5063312;28;19936;-80
2023/07/25 22:29:26;;;;;;;3.88;1.83;;;;;;;;;;5057022;28;20281;-80
2023/07/25 22:31:55;;;;;;;3.20;1.80;;;;;;;;;;5051970;28;20097;-80
2023/07/25 22:41:06;;;;;;;4.40;2.00;;;;;;;;;;4991780;28;20045;-80
2023/07/25 22:43:35;;;;;;;2.55;1.90;;;;;;;;;;5044609;28;20032;-80
2023/07/25 22:46:30;;;;;;;2.47;1.70;;;;;;;;;;5063277;28;20036;-80
2023/07/25 22:49:01;;;;;;;4.80;1.98;;;;;;;;;;5048599;28;20051;-80
2023/07/25 22:51:27;;;;;;;2.75;1.90;;;;;;;;;;5047409;28;20421;-80
2023/07/25 22:53:59;;;;;;;2.80;1.85;;;;;;;;;;5053793;28;20554;-81
2023/07/25 22:56:25;;;;;;;3.10;1.98;;;;;;;;;;5063138;28;20498;-80
2023/07/25 22:58:50;;;;;;;3.60;1.90;;;;;;;;;;5063973;28;20047;-81
2023/07/25 23:01:16;;;;;;;2.67;2.08;;;;;;;;;;5063422;28;20090;-80
2023/07/25 23:03:48;;;;;;;3.92;2.05;;;;;;;;;;5064537;28;20485;-80
2023/07/25 23:06:14;;;;;;;3.42;2.20;;;;;;;;;;5040111;28;20441;-80
2023/07/25 23:09:06;;;;;;;4.55;2.42;;;;;;;;;;5065738;28;20506;-80
2023/07/25 23:11:32;;;;;;;3.35;2.38;;;;;;;;;;5049121;28;20032;-80
2023/07/25 23:14:00;;;;;;;4.65;2.40;;;;;;;;;;5063691;28;20048;-80
2023/07/25 23:16:35;;;;;;;4.40;2.50;;;;;;;;;;5064644;28;20044;-81
2023/07/25 23:19:01;;;;;;;3.28;2.22;;;;;;;;;;5059659;28;20055;-80
2023/07/25 23:21:26;;;;;;;5.43;2.40;;;;;;;;;;5062426;28;20032;-80
2023/07/25 23:24:08;;;;;;;3.65;2.10;;;;;;;;;;5066663;28;20108;-80
2023/07/25 23:26:34;;;;;;;6.55;2.70;;;;;;;;;;5067116;28;20509;-80
2023/07/25 23:28:59;;;;;;;3.72;2.30;;;;;;;;;;5064488;28;20040;-80
2023/07/25 23:31:25;;;;;;;3.40;2.50;;;;;;;;;;5064064;28;20055;-80
2023/07/25 23:33:50;;;;;;;3.60;2.38;;;;;;;;;;5064343;28;20132;-80
2023/07/25 23:36:16;;;;;;;3.92;2.45;;;;;;;;;;5062789;28;20565;-80
2023/07/25 23:39:04;;;;;;;2.63;2.13;;;;;;;;;;5046247;28;20402;-80
2023/07/25 23:41:30;;;;;;;6.35;2.70;;;;;;;;;;5041651;28;20032;-81
2023/07/25 23:43:58;;;;;;;5.00;2.40;;;;;;;;;;5057620;28;20060;-81
2023/07/25 23:46:26;;;;;;;4.43;2.47;;;;;;;;;;5060103;28;20043;-80
2023/07/25 23:48:51;;;;;;;4.28;2.55;;;;;;;;;;5061897;28;20037;-80
2023/07/25 23:51:34;;;;;;;4.88;2.50;;;;;;;;;;5065851;28;20105;-80
2023/07/25 23:54:00;;;;;;;3.83;2.25;;;;;;;;;;5058215;28;20044;-80
2023/07/25 23:56:26;;;;;;;5.20;2.65;;;;;;;;;;5064260;28;20410;-81
2023/07/25 23:58:53;;;;;;;9.20;2.60;;;;;;;;;;5064668;28;20793;-80
